createdAt,value
2023-04-28T00:00:20.040Z,7.85
2023-04-28T00:02:49.005Z,6.35
2023-04-28T00:05:17.006Z,7.95
2023-04-28T00:07:46.016Z,6.85
2023-04-28T00:10:13.582Z,7.35
2023-04-28T00:12:41.093Z,9.55
2023-04-28T00:15:09.357Z,10.45
2023-04-28T00:17:36.772Z,7.97
2023-04-28T00:20:05.618Z,7.03
2023-04-28T00:22:33.470Z,9.70
2023-04-28T00:25:02.451Z,5.72
2023-04-28T00:27:33.483Z,9.02
2023-04-28T00:30:01.043Z,7.38
2023-04-28T00:32:34.100Z,10.20
2023-04-28T00:35:02.488Z,9.27
2023-04-28T00:37:36.315Z,8.40
2023-04-28T00:40:32.465Z,7.65
2023-04-28T00:42:59.962Z,7.68
2023-04-28T00:45:28.573Z,9.60
2023-04-28T00:47:58.883Z,9.68
2023-04-28T00:50:27.582Z,6.90
2023-04-28T00:52:55.435Z,11.32
2023-04-28T00:55:25.068Z,13.45
2023-04-28T00:57:52.837Z,19.17
2023-04-28T01:00:20.376Z,8.52
2023-04-28T01:02:48.018Z,11.13
2023-04-28T01:05:17.050Z,10.98
2023-04-28T01:07:44.873Z,6.95
2023-04-28T01:10:12.319Z,8.88
2023-04-28T01:12:41.199Z,8.75
2023-04-28T01:15:15.647Z,11.18
2023-04-28T01:17:44.278Z,9.88
2023-04-28T01:20:12.136Z,14.18
2023-04-28T01:22:40.154Z,6.35
2023-04-28T01:25:10.521Z,9.32
2023-04-28T01:27:38.547Z,9.85
2023-04-28T01:30:07.768Z,9.98
2023-04-28T01:32:35.588Z,9.48
2023-04-28T01:35:03.724Z,9.82
2023-04-28T01:37:31.388Z,10.98
2023-04-28T01:39:58.761Z,11.05
2023-04-28T01:42:27.635Z,9.30
2023-04-28T01:44:55.039Z,9.38
2023-04-28T01:47:22.619Z,12.27
2023-04-28T01:49:50.475Z,10.45
2023-04-28T01:52:19.916Z,7.75
2023-04-28T01:54:47.832Z,10.80
2023-04-28T01:57:17.293Z,10.02
2023-04-28T01:59:46.975Z,13.02
2023-04-28T02:02:16.558Z,8.90
2023-04-28T02:04:44.234Z,6.93
2023-04-28T02:07:11.640Z,9.10
2023-04-28T02:09:39.124Z,11.40
2023-04-28T02:12:06.982Z,8.57
2023-04-28T02:14:34.722Z,12.55
2023-04-28T02:17:05.574Z,13.85
2023-04-28T02:19:33.922Z,6.63
2023-04-28T02:22:01.509Z,9.05
2023-04-28T02:24:28.873Z,12.82
2023-04-28T02:26:59.063Z,11.05
2023-04-28T02:29:28.422Z,9.85
2023-04-28T02:31:58.606Z,8.98
2023-04-28T02:34:27.808Z,10.93
2023-04-28T02:36:55.166Z,12.65
2023-04-28T02:39:25.558Z,9.85
2023-04-28T02:41:53.494Z,10.32
2023-04-28T02:44:21.689Z,15.38
2023-04-28T02:46:49.089Z,9.60
2023-04-28T02:49:16.568Z,11.57
2023-04-28T02:51:45.992Z,12.75
2023-04-28T02:54:13.578Z,12.77
2023-04-28T02:56:41.493Z,9.27
2023-04-28T02:59:08.886Z,11.77
2023-04-28T03:01:36.463Z,12.10
2023-04-28T03:04:04.280Z,14.60
2023-04-28T03:06:31.956Z,11.07
2023-04-28T03:09:01.895Z,9.63
2023-04-28T03:11:29.313Z,6.03
2023-04-28T03:13:56.857Z,9.48
2023-04-28T03:16:24.344Z,9.52
2023-04-28T03:18:51.683Z,9.85
2023-04-28T03:21:20.037Z,11.52
2023-04-28T03:23:47.752Z,10.68
2023-04-28T03:26:16.825Z,8.60
2023-04-28T03:28:44.832Z,11.38
2023-04-28T03:31:12.197Z,5.50
2023-04-28T03:33:39.528Z,8.55
2023-04-28T03:36:07.859Z,7.82
2023-04-28T03:38:35.296Z,10.05
2023-04-28T03:41:02.724Z,6.93
2023-04-28T03:43:53.508Z,9.05
2023-04-28T03:46:30.176Z,9.57
2023-04-28T03:48:58.657Z,9.93
2023-04-28T03:51:26.221Z,7.82
2023-04-28T03:53:53.665Z,9.20
2023-04-28T03:56:21.277Z,9.52
2023-04-28T03:58:48.665Z,10.73
2023-04-28T04:01:17.592Z,17.77
2023-04-28T04:03:45.338Z,6.70
2023-04-28T04:06:13.633Z,5.88
2023-04-28T04:08:42.010Z,6.47
2023-04-28T04:11:11.330Z,10.13
2023-04-28T04:13:38.936Z,8.73
2023-04-28T04:16:09.980Z,9.60
2023-04-28T04:18:38.936Z,5.63
2023-04-28T04:21:14.798Z,7.50
2023-04-28T04:23:42.181Z,8.15
2023-04-28T04:26:09.537Z,10.38
2023-04-28T04:28:37.534Z,10.98
2023-04-28T04:31:06.749Z,10.00
2023-04-28T04:33:34.848Z,10.65
2023-04-28T04:36:05.060Z,7.93
2023-04-28T04:38:33.394Z,10.77
2023-04-28T04:41:10.030Z,12.15
2023-04-28T04:43:37.503Z,7.80
2023-04-28T04:46:05.109Z,9.25
2023-04-28T04:48:32.988Z,9.13
2023-04-28T04:51:01.115Z,7.53
2023-04-28T04:53:29.754Z,10.30
2023-04-28T04:55:58.022Z,7.95
2023-04-28T04:58:26.746Z,8.73
2023-04-28T05:01:20.657Z,8.50
2023-04-28T05:03:48.393Z,5.03
2023-04-28T05:06:16.137Z,8.38
2023-04-28T05:08:47.903Z,7.70
2023-04-28T05:11:15.927Z,10.15
2023-04-28T05:13:44.832Z,10.35
2023-04-28T05:16:13.197Z,9.63
2023-04-28T05:19:00.882Z,8.32
2023-04-28T05:21:28.799Z,5.80
2023-04-28T05:23:57.791Z,9.90
2023-04-28T05:26:25.514Z,10.32
2023-04-28T05:28:56.019Z,10.20
2023-04-28T05:31:23.660Z,5.22
2023-04-28T05:33:51.897Z,7.20
2023-04-28T05:36:19.666Z,7.25
2023-04-28T05:38:47.716Z,6.28
2023-04-28T05:41:16.577Z,10.77
2023-04-28T05:43:44.591Z,12.07
2023-04-28T05:46:28.312Z,12.57
2023-04-28T05:49:13.058Z,8.27
2023-04-28T05:51:48.813Z,8.30
2023-04-28T05:54:17.006Z,5.85
2023-04-28T05:56:48.704Z,8.05
2023-04-28T05:59:16.759Z,7.25
2023-04-28T06:01:44.242Z,6.97
2023-04-28T06:04:12.247Z,6.22
2023-04-28T06:06:39.683Z,6.85
2023-04-28T06:09:07.227Z,5.82
2023-04-28T06:11:34.496Z,8.90
2023-04-28T06:14:03.422Z,10.15
2023-04-28T06:16:31.110Z,6.45
2023-04-28T06:18:58.533Z,6.47
2023-04-28T06:21:27.541Z,4.95
2023-04-28T06:23:54.885Z,6.38
2023-04-28T06:26:22.715Z,5.70
2023-04-28T06:28:50.917Z,3.63
2023-04-28T06:31:19.629Z,7.45
2023-04-28T06:33:46.990Z,3.95
2023-04-28T06:36:14.333Z,7.18
2023-04-28T06:38:43.307Z,2.20
2023-04-28T06:41:13.390Z,4.53
2023-04-28T06:43:43.124Z,7.35
2023-04-28T06:46:15.278Z,7.72
2023-04-28T06:48:45.299Z,4.47
2023-04-28T06:51:12.928Z,4.57
2023-04-28T06:53:40.888Z,4.93
2023-04-28T06:56:11.032Z,8.70
2023-04-28T06:58:39.159Z,4.95
2023-04-28T07:01:06.859Z,6.68
2023-04-28T07:03:34.540Z,5.03
2023-04-28T07:06:04.373Z,7.68
2023-04-28T07:08:32.044Z,4.20
2023-04-28T07:10:59.441Z,4.95
2023-04-28T07:13:27.213Z,3.70
2023-04-28T07:15:55.024Z,8.02
2023-04-28T07:18:22.876Z,5.68
2023-04-28T07:20:50.931Z,3.15
2023-04-28T07:23:19.922Z,5.05
2023-04-28T07:25:47.442Z,6.30
2023-04-28T07:28:14.799Z,5.18
2023-04-28T07:30:42.365Z,4.10
2023-04-28T07:33:10.033Z,5.18
2023-04-28T07:35:37.543Z,4.78
2023-04-28T07:38:04.995Z,5.32
2023-04-28T07:40:33.734Z,5.82
2023-04-28T07:43:01.551Z,5.20
2023-04-28T07:45:29.173Z,4.80
2023-04-28T07:47:56.854Z,4.72
2023-04-28T07:50:36.489Z,5.25
2023-04-28T07:53:03.963Z,7.65
2023-04-28T07:55:31.684Z,7.57
2023-04-28T07:58:00.662Z,5.45
2023-04-28T08:00:28.106Z,4.22
2023-04-28T08:02:56.980Z,4.18
2023-04-28T08:05:25.126Z,6.43
2023-04-28T08:07:52.724Z,4.10
2023-04-28T08:10:20.553Z,6.25
2023-04-28T08:12:47.940Z,4.88
2023-04-28T08:15:18.311Z,4.18
2023-04-28T08:17:45.852Z,7.03
2023-04-28T08:20:15.593Z,8.98
2023-04-28T08:22:45.378Z,6.28
2023-04-28T08:25:12.774Z,6.80
2023-04-28T08:27:40.237Z,7.00
2023-04-28T08:30:09.245Z,7.82
2023-04-28T08:32:40.621Z,7.90
2023-04-28T08:35:08.729Z,12.07
2023-04-28T08:37:36.418Z,7.20
2023-04-28T08:40:09.687Z,9.15
2023-04-28T08:42:45.701Z,6.55
2023-04-28T08:45:17.299Z,8.85
2023-04-28T08:47:50.101Z,7.35
2023-04-28T08:50:22.841Z,8.80
2023-04-28T08:52:57.154Z,9.70
2023-04-28T08:55:26.456Z,5.80
2023-04-28T08:57:55.384Z,7.22
2023-04-28T09:00:23.415Z,7.38
2023-04-28T09:02:52.476Z,9.15
2023-04-28T09:05:19.956Z,8.98
2023-04-28T09:07:48.943Z,7.32
2023-04-28T09:10:21.605Z,11.75
2023-04-28T09:12:52.360Z,11.73
2023-04-28T09:15:33.523Z,7.07
2023-04-28T09:18:03.793Z,9.80
2023-04-28T09:20:35.491Z,5.13
2023-04-28T09:23:17.670Z,8.63
2023-04-28T09:26:00.132Z,6.78
2023-04-28T09:28:28.485Z,10.05
2023-04-28T09:30:56.190Z,9.43
2023-04-28T09:33:28.423Z,9.98
2023-04-28T09:35:56.632Z,9.07
2023-04-28T09:38:24.499Z,8.18
2023-04-28T09:40:54.204Z,9.25
2023-04-28T09:43:30.047Z,9.05
2023-04-28T09:46:01.180Z,9.40
2023-04-28T09:48:32.311Z,9.15
2023-04-28T09:51:01.233Z,11.07
2023-04-28T09:53:30.857Z,10.68
2023-04-28T09:55:59.670Z,8.00
2023-04-28T09:58:28.526Z,9.13
2023-04-28T10:00:58.235Z,8.32
2023-04-28T10:03:29.634Z,9.60
2023-04-28T10:05:59.518Z,9.00
2023-04-28T10:08:28.010Z,9.18
2023-04-28T10:10:57.025Z,7.05
2023-04-28T10:13:24.786Z,9.40
2023-04-28T10:15:58.494Z,7.22
2023-04-28T10:18:26.542Z,7.93
2023-04-28T10:20:58.445Z,9.23
2023-04-28T10:26:23.392Z,7.05
2023-04-28T10:28:52.248Z,9.77
2023-04-28T10:31:21.447Z,16.63
2023-04-28T10:33:49.724Z,8.20
2023-04-28T10:36:47.553Z,11.40
2023-04-28T10:39:16.963Z,14.55
2023-04-28T10:41:46.758Z,9.52
2023-04-28T10:44:42.089Z,10.00
2023-04-28T10:47:10.319Z,11.68
2023-04-28T10:50:09.172Z,6.97
2023-04-28T10:52:49.300Z,7.75
2023-04-28T10:55:37.477Z,4.30
2023-04-28T10:58:35.544Z,11.55
2023-04-28T11:01:25.751Z,7.38
2023-04-28T11:04:04.548Z,9.45
2023-04-28T11:06:34.827Z,8.63
2023-04-28T11:09:44.796Z,8.55
2023-04-28T11:12:13.649Z,7.97
2023-04-28T11:14:43.794Z,11.00
2023-04-28T11:17:13.950Z,8.70
2023-04-28T11:19:43.434Z,9.48
2023-04-28T11:22:24.381Z,6.60
2023-04-28T11:24:59.058Z,9.35
2023-04-28T11:27:28.836Z,8.90
2023-04-28T11:29:58.481Z,7.97
2023-04-28T11:32:29.995Z,7.28
2023-04-28T11:34:59.819Z,7.22
2023-04-28T11:37:27.427Z,12.35
2023-04-28T11:39:55.023Z,12.35
2023-04-28T11:42:22.392Z,5.10
2023-04-28T11:44:57.670Z,6.72
2023-04-28T11:47:34.843Z,10.48
2023-04-28T11:50:08.556Z,5.60
2023-04-28T11:52:36.139Z,6.82
2023-04-28T11:55:05.082Z,6.45
2023-04-28T11:57:33.045Z,6.63
2023-04-28T12:00:15.247Z,8.93
2023-04-28T12:02:43.190Z,9.55
2023-04-28T12:05:14.820Z,8.98
2023-04-28T12:07:44.777Z,8.15
2023-04-28T12:10:13.874Z,7.72
2023-04-28T12:12:50.983Z,7.63
2023-04-28T12:15:22.899Z,7.03
2023-04-28T12:17:51.936Z,7.72
2023-04-28T12:20:36.526Z,4.43
2023-04-28T12:23:05.511Z,5.97
2023-04-28T12:25:35.319Z,9.30
2023-04-28T12:28:05.067Z,7.15
2023-04-28T12:30:35.136Z,7.88
2023-04-28T12:33:02.957Z,4.60
2023-04-28T12:35:30.772Z,7.70
2023-04-28T12:37:59.211Z,6.93
2023-04-28T12:40:27.319Z,8.85
2023-04-28T12:42:55.081Z,6.38
2023-04-28T12:45:22.838Z,5.07
2023-04-28T12:47:51.683Z,8.45
2023-04-28T12:50:19.421Z,5.95
2023-04-28T12:52:46.899Z,8.75
2023-04-28T12:55:14.226Z,5.10
2023-04-28T12:57:42.119Z,5.03
2023-04-28T13:00:10.611Z,7.63
2023-04-28T13:02:38.436Z,4.47
2023-04-28T13:05:09.416Z,4.60
2023-04-28T13:07:36.909Z,3.95
2023-04-28T13:10:04.812Z,6.82
2023-04-28T13:12:33.645Z,5.43
2023-04-28T13:15:02.094Z,5.53
2023-04-28T13:17:34.016Z,3.90
2023-04-28T13:20:03.765Z,4.40
2023-04-28T13:22:37.014Z,4.60
2023-04-28T13:25:04.953Z,6.95
2023-04-28T13:27:33.448Z,3.08
2023-04-28T13:30:01.012Z,3.28
2023-04-28T13:32:28.390Z,6.80
2023-04-28T13:34:55.996Z,4.30
2023-04-28T13:37:23.291Z,3.15
2023-04-28T13:39:52.364Z,5.68
2023-04-28T13:42:19.553Z,3.25
2023-04-28T13:44:49.315Z,2.60
2023-04-28T13:47:16.819Z,10.50
2023-04-28T13:49:44.415Z,4.50
2023-04-28T13:52:11.741Z,4.53
2023-04-28T13:54:39.623Z,5.13
2023-04-28T13:57:08.727Z,4.20
2023-04-28T13:59:36.131Z,3.08
2023-04-28T14:02:04.159Z,4.40
2023-04-28T14:04:31.800Z,2.45
2023-04-28T14:06:59.629Z,5.38
2023-04-28T14:09:27.050Z,4.25
2023-04-28T14:11:56.858Z,2.45
2023-04-28T14:14:25.633Z,4.85
2023-04-28T14:16:53.135Z,2.22
2023-04-28T14:19:21.177Z,3.65
2023-04-28T14:21:48.817Z,4.75
2023-04-28T14:24:16.177Z,2.88
2023-04-28T14:26:44.166Z,2.78
2023-04-28T14:29:11.900Z,3.53
2023-04-28T14:31:41.218Z,2.45
2023-04-28T14:34:08.755Z,2.45
2023-04-28T14:36:38.392Z,3.13
2023-04-28T14:39:06.035Z,4.15
2023-04-28T14:41:33.396Z,5.05
2023-04-28T14:44:01.076Z,2.97
2023-04-28T14:46:28.709Z,3.55
2023-04-28T14:48:58.558Z,2.17
2023-04-28T14:51:26.245Z,2.40
2023-04-28T14:53:53.643Z,4.82
2023-04-28T14:56:21.044Z,3.92
2023-04-28T14:58:49.084Z,4.00
2023-04-28T15:01:17.493Z,4.05
2023-04-28T15:03:45.334Z,3.95
2023-04-28T15:06:14.383Z,4.93
2023-04-28T15:08:41.825Z,1.38
2023-04-28T15:11:09.635Z,2.60
2023-04-28T15:13:37.074Z,3.05
2023-04-28T15:16:06.199Z,3.15
2023-04-28T15:18:33.654Z,2.55
2023-04-28T15:21:01.863Z,2.00
2023-04-28T15:23:30.612Z,4.70
2023-04-28T15:25:58.099Z,1.27
2023-04-28T15:28:25.987Z,1.25
2023-04-28T15:30:53.264Z,2.88
2023-04-28T15:33:20.986Z,3.00
2023-04-28T15:35:48.609Z,2.03
2023-04-28T15:38:17.394Z,2.35
2023-04-28T15:40:46.279Z,2.45
2023-04-28T15:43:13.862Z,4.38
2023-04-28T15:45:41.692Z,2.72
2023-04-28T15:48:10.223Z,1.33
2023-04-28T15:50:37.809Z,1.67
2023-04-28T15:53:05.434Z,2.25
2023-04-28T15:55:33.042Z,2.45
2023-04-28T15:58:02.221Z,2.63
2023-04-28T16:00:29.996Z,2.25
2023-04-28T16:02:57.579Z,2.05
2023-04-28T16:05:25.266Z,2.00
2023-04-28T16:07:52.974Z,3.67
2023-04-28T16:10:20.329Z,2.80
2023-04-28T16:12:54.772Z,9.13
2023-04-28T16:15:23.742Z,1.45
2023-04-28T16:18:13.575Z,2.25
2023-04-28T16:20:44.344Z,2.80
2023-04-28T16:23:14.733Z,0.95
2023-04-28T16:26:34.640Z,2.15
2023-04-28T16:29:02.394Z,1.73
2023-04-28T16:31:31.411Z,1.25
2023-04-28T16:33:58.617Z,2.00
2023-04-28T16:37:15.323Z,0.85
2023-04-28T16:40:46.172Z,2.20
2023-04-28T16:43:13.577Z,2.45
2023-04-28T16:45:40.808Z,1.25
2023-04-28T16:48:24.957Z,0.98
2023-04-28T16:50:52.404Z,2.97
2023-04-28T16:53:19.939Z,1.40
2023-04-28T16:55:47.849Z,1.10
2023-04-28T16:58:15.344Z,1.73
2023-04-28T17:00:42.997Z,3.83
2023-04-28T17:03:10.814Z,2.45
2023-04-28T17:05:39.734Z,2.15
2023-04-28T17:08:07.195Z,1.15
2023-04-28T17:10:37.365Z,2.95
2023-04-28T17:13:04.892Z,1.40
2023-04-28T17:15:32.550Z,2.22
2023-04-28T17:18:00.402Z,1.65
2023-04-28T17:20:27.873Z,1.85
2023-04-28T17:22:57.333Z,1.23
2023-04-28T17:25:24.763Z,1.33
2023-04-28T17:27:52.339Z,3.83
2023-04-28T17:30:20.006Z,1.30
2023-04-28T17:32:47.688Z,0.95
2023-04-28T17:35:15.071Z,1.15
2023-04-28T17:37:42.418Z,2.38
2023-04-28T17:40:12.637Z,3.78
2023-04-28T17:42:40.246Z,1.30
2023-04-28T17:45:08.852Z,1.23
2023-04-28T17:47:38.992Z,1.85
2023-04-28T17:50:07.656Z,1.40
2023-04-28T17:52:35.072Z,1.60
2023-04-28T17:55:04.411Z,0.52
2023-04-28T17:57:33.641Z,2.72
2023-04-28T18:00:01.752Z,1.65
2023-04-28T18:02:39.472Z,1.48
2023-04-28T18:05:07.769Z,1.55
2023-04-28T18:07:35.514Z,4.45
2023-04-28T18:10:02.954Z,0.98
2023-04-28T18:12:30.789Z,1.60
2023-04-28T18:14:59.548Z,1.30
2023-04-28T18:17:27.152Z,4.80
2023-04-28T18:19:56.915Z,4.15
2023-04-28T18:22:24.865Z,4.28
2023-04-28T18:24:53.185Z,1.10
2023-04-28T18:27:20.434Z,1.73
2023-04-28T18:29:47.788Z,1.55
2023-04-28T18:32:16.757Z,1.45
2023-04-28T18:34:44.400Z,0.98
2023-04-28T18:37:11.815Z,1.45
2023-04-28T18:39:39.121Z,1.67
2023-04-28T18:42:06.785Z,1.35
2023-04-28T18:44:34.339Z,2.25
2023-04-28T18:47:01.771Z,1.10
2023-04-28T18:49:30.623Z,1.40
2023-04-28T18:52:02.558Z,2.55
2023-04-28T18:54:31.183Z,2.13
2023-04-28T18:56:59.818Z,2.08
2023-04-28T18:59:27.254Z,2.55
2023-04-28T19:01:54.699Z,1.42
2023-04-28T19:04:22.985Z,1.30
2023-04-28T19:06:52.029Z,2.15
2023-04-28T19:09:19.419Z,2.47
2023-04-28T19:11:47.063Z,2.17
2023-04-28T19:14:14.440Z,3.03
2023-04-28T19:16:42.440Z,2.90
2023-04-28T19:19:09.989Z,1.55
2023-04-28T19:21:43.671Z,3.67
2023-04-28T19:24:13.019Z,1.58
2023-04-28T19:26:40.570Z,2.72
2023-04-28T19:29:07.961Z,1.35
2023-04-28T19:31:35.461Z,1.33
2023-04-28T19:34:03.006Z,1.40
2023-04-28T19:36:30.287Z,1.25
2023-04-28T19:38:57.623Z,1.00
2023-04-28T19:41:26.899Z,1.30
2023-04-28T19:43:54.394Z,1.45
2023-04-28T19:46:22.043Z,1.85
2023-04-28T19:48:49.405Z,2.63
2023-04-28T19:51:17.096Z,4.18
2023-04-28T19:53:46.505Z,3.83
2023-04-28T19:56:16.275Z,2.70
2023-04-28T19:58:47.875Z,1.27
2023-04-28T20:01:16.090Z,2.45
2023-04-28T20:03:43.882Z,3.92
2023-04-28T20:06:15.644Z,2.65
2023-04-28T20:08:44.039Z,1.60
2023-04-28T20:11:11.585Z,1.40
2023-04-28T20:13:38.868Z,3.83
2023-04-28T20:16:07.860Z,2.80
2023-04-28T20:18:35.981Z,2.05
2023-04-28T20:21:03.680Z,2.35
2023-04-28T20:23:31.084Z,1.85
2023-04-28T20:25:59.405Z,2.60
2023-04-28T20:28:27.498Z,2.22
2023-04-28T20:30:54.890Z,2.88
2023-04-28T20:33:24.293Z,2.75
2023-04-28T20:35:51.607Z,2.17
2023-04-28T20:38:19.938Z,3.55
2023-04-28T20:40:47.199Z,3.85
2023-04-28T20:43:14.754Z,2.67
2023-04-28T20:45:42.501Z,2.08
2023-04-28T20:48:10.758Z,3.97
2023-04-28T20:50:41.160Z,3.03
2023-04-28T20:53:09.251Z,3.53
2023-04-28T20:55:36.720Z,3.72
2023-04-28T20:58:04.936Z,3.90
2023-04-28T21:00:33.932Z,11.07
2023-04-28T21:03:04.834Z,3.22
2023-04-28T21:05:32.688Z,2.05
2023-04-28T21:08:01.414Z,3.83
2023-04-28T21:10:28.658Z,2.83
2023-04-28T21:12:56.059Z,2.67
2023-04-28T21:15:23.608Z,7.40
2023-04-28T21:17:51.125Z,2.88
2023-04-28T21:20:18.598Z,3.47
2023-04-28T21:22:45.853Z,1.90
2023-04-28T21:25:14.750Z,3.10
2023-04-28T21:27:42.688Z,4.28
2023-04-28T21:30:11.865Z,5.80
2023-04-28T21:32:39.714Z,3.03
2023-04-28T21:35:07.786Z,3.97
2023-04-28T21:37:35.277Z,2.63
2023-04-28T21:40:03.549Z,2.50
2023-04-28T21:42:34.680Z,2.25
2023-04-28T21:45:02.779Z,5.47
2023-04-28T21:47:32.706Z,4.03
2023-04-28T21:50:00.193Z,1.88
2023-04-28T21:52:27.673Z,4.38
2023-04-28T21:54:55.253Z,3.78
2023-04-28T21:57:22.616Z,3.78
2023-04-28T21:59:52.201Z,3.45
2023-04-28T22:02:20.109Z,3.40
2023-04-28T22:04:47.748Z,2.88
2023-04-28T22:07:15.116Z,3.63
2023-04-28T22:09:42.533Z,3.20
2023-04-28T22:12:09.811Z,3.80
2023-04-28T22:14:40.863Z,1.45
2023-04-28T22:17:10.003Z,3.95
2023-04-28T22:19:37.666Z,2.90
2023-04-28T22:22:05.168Z,3.50
2023-04-28T22:24:32.739Z,4.07
2023-04-28T22:27:00.219Z,2.17
2023-04-28T22:29:28.752Z,3.70
2023-04-28T22:31:56.430Z,1.83
2023-04-28T22:34:25.809Z,5.10
2023-04-28T22:36:53.186Z,4.60
2023-04-28T22:39:20.789Z,6.10
2023-04-28T22:41:48.218Z,3.35
2023-04-28T22:44:15.610Z,2.00
2023-04-28T22:46:43.066Z,2.80
2023-04-28T22:49:10.489Z,1.17
2023-04-28T22:51:39.201Z,1.85
2023-04-28T22:54:06.641Z,1.83
2023-04-28T22:56:33.934Z,1.92
2023-04-28T22:59:01.268Z,3.65
2023-04-28T23:01:29.171Z,1.30
2023-04-28T23:03:56.577Z,3.10
2023-04-28T23:06:24.027Z,1.75
2023-04-28T23:08:52.646Z,1.55
2023-04-28T23:11:20.093Z,1.52
2023-04-28T23:13:47.538Z,1.70
2023-04-28T23:16:14.996Z,1.27
2023-04-28T23:18:43.728Z,1.25
2023-04-28T23:21:12.315Z,1.63
2023-04-28T23:23:39.684Z,1.60
2023-04-28T23:26:08.503Z,1.10
2023-04-28T23:28:35.791Z,1.48
2023-04-28T23:31:03.266Z,3.25
2023-04-28T23:33:30.776Z,1.63
2023-04-28T23:35:58.159Z,1.58
2023-04-28T23:38:26.512Z,1.10
2023-04-28T23:40:53.979Z,1.10
2023-04-28T23:43:22.841Z,1.55
2023-04-28T23:45:50.204Z,1.88
2023-04-28T23:48:17.742Z,0.43
2023-04-28T23:50:45.110Z,1.45
2023-04-28T23:53:12.670Z,2.63
2023-04-28T23:55:40.170Z,0.85
2023-04-28T23:58:08.045Z,1.60
